createdAt,value
2019-03-12T00:00:38.025Z,25.37
2019-03-12T00:03:07.545Z,22.07
2019-03-12T00:05:36.974Z,25.47
2019-03-12T00:08:06.465Z,22.60
2019-03-12T00:10:35.863Z,21.30
2019-03-12T00:13:05.464Z,26.00
2019-03-12T00:15:34.822Z,23.40
2019-03-12T00:18:04.355Z,19.43
2019-03-12T00:20:34.036Z,23.53
2019-03-12T00:23:03.431Z,25.60
2019-03-12T00:25:32.794Z,21.87
2019-03-12T00:28:02.218Z,21.57
2019-03-12T00:30:31.797Z,25.27
2019-03-12T00:33:01.265Z,23.10
2019-03-12T00:35:32.149Z,30.63
2019-03-12T00:38:01.634Z,21.27
2019-03-12T00:40:30.993Z,22.50
2019-03-12T00:43:00.393Z,24.47
2019-03-12T00:45:29.827Z,25.20
2019-03-12T00:47:59.368Z,23.53
2019-03-12T00:50:28.797Z,23.63
2019-03-12T00:52:58.260Z,22.90
2019-03-12T00:55:27.631Z,24.50
2019-03-12T00:57:57.011Z,34.70
2019-03-12T01:00:26.437Z,21.87
2019-03-12T01:02:55.904Z,26.33
2019-03-12T01:05:25.413Z,20.03
2019-03-12T01:07:54.889Z,25.07
2019-03-12T01:10:26.110Z,23.37
2019-03-12T01:12:55.531Z,22.13
2019-03-12T01:15:24.959Z,22.17
2019-03-12T01:17:56.191Z,27.87
2019-03-12T01:20:25.644Z,27.50
2019-03-12T01:22:55.035Z,20.03
2019-03-12T01:25:24.485Z,24.83
2019-03-12T01:27:53.888Z,21.40
2019-03-12T01:30:23.347Z,27.57
2019-03-12T01:32:52.756Z,25.63
2019-03-12T01:35:22.294Z,26.10
2019-03-12T01:37:51.973Z,23.73
2019-03-12T01:40:21.443Z,19.93
2019-03-12T01:42:52.486Z,39.33
2019-03-12T01:45:22.224Z,28.93
2019-03-12T01:47:51.692Z,26.27
2019-03-12T01:50:21.089Z,23.80
2019-03-12T01:52:50.489Z,18.70
2019-03-12T01:55:20.107Z,25.10
2019-03-12T01:57:49.732Z,20.70
2019-03-12T02:00:20.324Z,24.87
2019-03-12T02:02:49.952Z,20.27
2019-03-12T02:05:19.416Z,23.73
2019-03-12T02:07:48.949Z,21.40
2019-03-12T02:10:18.622Z,21.60
2019-03-12T02:12:48.059Z,25.67
2019-03-12T02:15:18.203Z,22.03
2019-03-12T02:17:47.561Z,21.20
2019-03-12T02:20:18.061Z,22.00
2019-03-12T02:22:47.592Z,30.37
2019-03-12T02:25:21.050Z,28.27
2019-03-12T02:27:50.579Z,26.37
2019-03-12T02:30:23.087Z,26.03
2019-03-12T02:32:52.504Z,30.20
2019-03-12T02:35:22.041Z,25.43
2019-03-12T02:37:51.476Z,16.00
2019-03-12T02:40:20.873Z,21.17
2019-03-12T02:42:50.227Z,21.37
2019-03-12T02:45:20.127Z,25.07
2019-03-12T02:47:49.629Z,23.90
2019-03-12T02:50:19.172Z,21.60
2019-03-12T02:52:48.639Z,23.30
2019-03-12T02:55:18.174Z,20.93
2019-03-12T02:57:47.777Z,25.37
2019-03-12T03:00:23.147Z,21.37
2019-03-12T03:02:52.570Z,20.97
2019-03-12T03:05:22.432Z,21.40
2019-03-12T03:07:59.300Z,23.17
2019-03-12T03:10:28.796Z,26.17
2019-03-12T03:12:58.255Z,24.60
2019-03-12T03:15:31.841Z,27.57
2019-03-12T03:18:01.356Z,21.27
2019-03-12T03:20:30.720Z,22.27
2019-03-12T03:23:00.180Z,17.20
2019-03-12T03:25:29.536Z,23.77
2019-03-12T03:27:58.941Z,24.30
2019-03-12T03:30:28.490Z,21.70
2019-03-12T03:32:58.036Z,21.87
2019-03-12T03:35:27.549Z,21.37
2019-03-12T03:37:57.161Z,20.37
2019-03-12T03:40:26.667Z,19.70
2019-03-12T03:42:56.370Z,16.17
2019-03-12T03:45:25.884Z,16.23
2019-03-12T03:47:55.414Z,20.87
2019-03-12T03:50:24.776Z,18.60
2019-03-12T03:52:54.278Z,17.03
2019-03-12T03:55:23.952Z,18.23
2019-03-12T03:57:53.649Z,15.53
2019-03-12T04:00:24.079Z,19.53
2019-03-12T04:02:53.616Z,20.93
2019-03-12T04:05:23.207Z,18.23
2019-03-12T04:07:52.662Z,16.03
2019-03-12T04:10:22.090Z,19.10
2019-03-12T04:12:51.553Z,23.90
2019-03-12T04:15:21.373Z,21.77
2019-03-12T04:17:50.867Z,23.60
2019-03-12T04:20:20.359Z,16.30
2019-03-12T04:22:49.900Z,18.13
2019-03-12T04:25:19.279Z,14.80
2019-03-12T04:27:48.911Z,21.80
2019-03-12T04:30:19.323Z,36.83
2019-03-12T04:32:48.872Z,42.10
2019-03-12T04:35:21.380Z,48.87
2019-03-12T04:37:50.888Z,47.50
2019-03-12T04:40:20.359Z,53.13
2019-03-12T04:42:49.733Z,45.10
2019-03-12T04:45:19.201Z,44.60
2019-03-12T04:47:50.111Z,33.83
2019-03-12T04:50:19.652Z,29.83
2019-03-12T04:52:49.098Z,27.20
2019-03-12T04:55:18.664Z,23.70
2019-03-12T04:57:48.059Z,21.43
2019-03-12T05:00:20.654Z,21.33
2019-03-12T05:02:50.222Z,16.27
2019-03-12T05:05:19.608Z,17.53
2019-03-12T05:07:49.005Z,19.27
2019-03-12T05:10:18.567Z,15.87
2019-03-12T05:12:48.108Z,19.40
2019-03-12T05:15:20.511Z,13.13
2019-03-12T05:17:49.940Z,19.50
2019-03-12T05:20:19.368Z,18.60
2019-03-12T05:22:48.846Z,11.57
2019-03-12T05:25:18.207Z,18.90
2019-03-12T05:27:47.684Z,19.87
2019-03-12T05:30:19.373Z,16.73
2019-03-12T05:32:48.875Z,17.50
2019-03-12T05:35:18.309Z,14.57
2019-03-12T05:37:47.881Z,15.13
2019-03-12T05:40:17.511Z,17.33
2019-03-12T05:42:47.033Z,16.97
2019-03-12T05:45:18.375Z,16.20
2019-03-12T05:47:47.883Z,15.17
2019-03-12T05:50:21.816Z,16.07
2019-03-12T05:52:51.301Z,17.87
2019-03-12T05:55:20.665Z,22.07
2019-03-12T05:57:51.355Z,21.10
2019-03-12T06:00:22.873Z,21.03
2019-03-12T06:02:52.334Z,18.57
2019-03-12T06:05:21.874Z,20.07
2019-03-12T06:07:51.337Z,17.80
2019-03-12T06:10:20.741Z,19.77
2019-03-12T06:12:50.282Z,24.77
2019-03-12T06:15:19.811Z,22.07
2019-03-12T06:17:49.280Z,22.50
2019-03-12T06:20:18.763Z,21.47
2019-03-12T06:22:48.197Z,22.23
2019-03-12T06:25:18.271Z,25.67
2019-03-12T06:27:47.628Z,25.10
2019-03-12T06:30:19.576Z,27.23
2019-03-12T06:32:53.699Z,27.17
2019-03-12T06:35:25.787Z,25.37
2019-03-12T06:38:13.194Z,30.20
2019-03-12T06:41:01.149Z,29.90
2019-03-12T06:43:32.228Z,31.03
2019-03-12T06:46:03.540Z,30.17
2019-03-12T06:48:40.850Z,28.73
2019-03-12T06:51:28.282Z,32.43
2019-03-12T06:54:15.600Z,28.77
2019-03-12T06:56:55.543Z,30.27
2019-03-12T06:59:26.564Z,28.67
2019-03-12T07:01:57.701Z,29.87
2019-03-12T07:04:28.799Z,31.23
2019-03-12T07:07:07.012Z,31.60
2019-03-12T07:09:39.996Z,31.57
2019-03-12T07:12:29.415Z,25.90
2019-03-12T07:15:06.195Z,23.57
2019-03-12T07:17:55.436Z,25.63
2019-03-12T07:20:39.482Z,24.00
2019-03-12T07:23:26.990Z,28.40
2019-03-12T07:26:03.783Z,24.93
2019-03-12T07:28:34.881Z,20.70
2019-03-12T07:31:13.426Z,27.00
2019-03-12T07:33:53.124Z,24.00
2019-03-12T07:36:41.229Z,28.73
2019-03-12T07:39:21.496Z,22.97
2019-03-12T07:41:55.636Z,30.07
2019-03-12T07:44:32.467Z,28.67
2019-03-12T07:47:03.553Z,26.23
2019-03-12T07:49:34.670Z,25.07
2019-03-12T07:52:18.391Z,16.70
2019-03-12T07:54:53.726Z,20.00
2019-03-12T07:57:33.903Z,21.97
2019-03-12T08:00:10.051Z,19.03
2019-03-12T08:02:59.503Z,20.97
2019-03-12T08:05:30.592Z,18.10
2019-03-12T08:08:11.075Z,19.10
2019-03-12T08:10:42.097Z,22.47
2019-03-12T08:13:22.020Z,18.03
2019-03-12T08:15:55.928Z,20.53
2019-03-12T08:18:42.151Z,19.57
2019-03-12T08:21:22.620Z,19.33
2019-03-12T08:24:00.797Z,19.13
2019-03-12T08:26:41.127Z,22.63
2019-03-12T08:29:14.887Z,19.43
2019-03-12T08:31:57.923Z,14.93
2019-03-12T08:34:40.930Z,21.37
2019-03-12T08:37:11.944Z,19.10
2019-03-12T08:39:58.980Z,15.90
2019-03-12T08:42:35.787Z,18.77
2019-03-12T08:45:15.061Z,17.43
2019-03-12T08:47:49.773Z,25.83
2019-03-12T08:50:35.627Z,18.13
2019-03-12T08:53:18.861Z,16.70
2019-03-12T08:55:52.589Z,19.53
2019-03-12T08:58:26.627Z,21.13
2019-03-12T09:01:00.511Z,19.60
2019-03-12T09:03:37.459Z,19.13
2019-03-12T09:06:20.598Z,16.57
2019-03-12T09:09:07.635Z,18.83
2019-03-12T09:11:38.754Z,20.47
2019-03-12T09:14:22.401Z,19.10
2019-03-12T09:17:09.921Z,18.73
2019-03-12T09:19:41.076Z,16.00
2019-03-12T09:22:29.603Z,24.27
2019-03-12T09:25:11.547Z,19.40
2019-03-12T09:27:57.905Z,16.47
2019-03-12T09:30:39.496Z,14.73
2019-03-12T09:33:09.196Z,17.60
2019-03-12T09:35:43.076Z,19.77
2019-03-12T09:38:30.804Z,15.13
2019-03-12T09:41:18.284Z,12.73
2019-03-12T09:43:55.677Z,17.63
2019-03-12T09:46:26.796Z,18.50
2019-03-12T09:49:00.797Z,16.87
2019-03-12T09:51:48.376Z,17.30
2019-03-12T09:54:28.297Z,14.23
2019-03-12T09:57:15.675Z,16.40
2019-03-12T09:59:58.426Z,12.40
2019-03-12T10:02:46.062Z,17.43
2019-03-12T10:05:33.381Z,12.73
2019-03-12T10:08:10.435Z,14.67
2019-03-12T10:10:41.581Z,18.77
2019-03-12T10:13:12.811Z,14.70
2019-03-12T10:15:50.043Z,14.77
2019-03-12T10:18:37.315Z,13.57
2019-03-12T10:21:24.946Z,11.70
2019-03-12T10:23:56.005Z,14.30
2019-03-12T10:26:33.140Z,10.33
2019-03-12T10:29:10.075Z,12.70
2019-03-12T10:31:50.137Z,11.70
2019-03-12T10:34:34.060Z,7.37
2019-03-12T10:37:12.266Z,12.30
2019-03-12T10:39:54.858Z,9.17
2019-03-12T10:42:31.725Z,11.90
2019-03-12T10:45:02.824Z,16.10
2019-03-12T10:47:36.941Z,10.30
2019-03-12T10:50:08.475Z,11.97
2019-03-12T10:52:38.176Z,12.70
2019-03-12T10:55:13.306Z,14.43
2019-03-12T10:57:39.534Z,14.77
2019-03-12T11:00:17.437Z,11.67
2019-03-12T11:02:48.260Z,8.67
2019-03-12T11:05:18.828Z,8.97
2019-03-12T11:07:48.291Z,13.77
2019-03-12T11:10:18.980Z,9.77
2019-03-12T11:12:48.656Z,10.87
2019-03-12T11:15:18.212Z,9.53
2019-03-12T11:17:49.790Z,10.00
2019-03-12T11:20:21.084Z,11.80
2019-03-12T11:22:50.476Z,12.77
2019-03-12T11:25:27.187Z,12.10
2019-03-12T11:27:51.118Z,10.60
2019-03-12T11:30:20.896Z,11.87
2019-03-12T11:32:50.366Z,9.83
2019-03-12T11:35:22.854Z,8.67
2019-03-12T11:37:52.317Z,12.67
2019-03-12T11:40:23.667Z,11.63
2019-03-12T11:42:53.539Z,10.37
2019-03-12T11:45:35.799Z,9.10
2019-03-12T11:47:54.083Z,10.47
2019-03-12T11:50:27.111Z,10.50
2019-03-12T11:52:58.845Z,10.30
2019-03-12T11:55:27.631Z,9.20
2019-03-12T11:57:57.034Z,6.47
2019-03-12T12:00:28.692Z,9.37
2019-03-12T12:03:07.395Z,12.63
2019-03-12T12:05:37.435Z,7.60
2019-03-12T12:08:09.151Z,9.27
2019-03-12T12:10:38.539Z,9.47
2019-03-12T12:13:08.033Z,10.77
2019-03-12T12:15:38.003Z,10.27
2019-03-12T12:18:07.571Z,8.93
2019-03-12T12:20:38.250Z,10.20
2019-03-12T12:23:07.846Z,12.40
2019-03-12T12:25:37.371Z,11.93
2019-03-12T12:28:06.746Z,12.80
2019-03-12T12:30:36.445Z,12.10
2019-03-12T12:33:06.249Z,10.90
2019-03-12T12:35:35.821Z,11.40
2019-03-12T12:38:05.436Z,10.67
2019-03-12T12:40:35.827Z,9.57
2019-03-12T12:43:05.477Z,11.07
2019-03-12T12:45:39.852Z,9.70
2019-03-12T12:48:09.289Z,9.47
2019-03-12T12:50:38.840Z,13.17
2019-03-12T12:53:08.338Z,6.63
2019-03-12T12:55:37.733Z,12.23
2019-03-12T12:58:08.603Z,11.63
2019-03-12T13:00:38.751Z,9.67
2019-03-12T13:03:08.284Z,11.43
2019-03-12T13:05:39.255Z,9.77
2019-03-12T13:08:08.825Z,10.53
2019-03-12T13:10:38.644Z,9.13
2019-03-12T13:13:08.118Z,7.77
2019-03-12T13:15:37.564Z,10.00
2019-03-12T13:18:07.395Z,9.20
2019-03-12T13:20:36.815Z,11.60
2019-03-12T13:23:06.349Z,9.53
2019-03-12T13:25:35.865Z,11.40
2019-03-12T13:28:06.068Z,10.10
2019-03-12T13:30:35.696Z,9.77
2019-03-12T13:33:05.178Z,9.47
2019-03-12T13:35:34.595Z,8.17
2019-03-12T13:38:04.050Z,8.73
2019-03-12T13:40:33.481Z,9.77
2019-03-12T13:43:03.119Z,12.20
2019-03-12T13:45:32.951Z,10.07
2019-03-12T13:48:04.012Z,6.43
2019-03-12T13:50:33.459Z,13.50
2019-03-12T13:53:03.474Z,7.43
2019-03-12T13:55:33.450Z,9.17
2019-03-12T13:58:03.270Z,10.03
2019-03-12T14:00:33.582Z,8.70
2019-03-12T14:03:03.581Z,10.80
2019-03-12T14:05:33.033Z,10.07
2019-03-12T14:08:02.639Z,7.20
2019-03-12T14:10:32.040Z,8.40
2019-03-12T14:13:01.560Z,11.60
2019-03-12T14:15:35.335Z,7.60
2019-03-12T14:18:06.810Z,9.67
2019-03-12T14:20:50.887Z,9.57
2019-03-12T14:23:35.059Z,9.17
2019-03-12T14:26:04.756Z,7.60
2019-03-12T14:28:34.277Z,6.97
2019-03-12T14:31:04.227Z,9.43
2019-03-12T14:33:33.817Z,9.53
2019-03-12T14:36:03.661Z,10.13
2019-03-12T14:38:33.259Z,7.73
2019-03-12T14:41:02.689Z,6.93
2019-03-12T14:43:32.284Z,7.20
2019-03-12T14:46:01.736Z,9.27
2019-03-12T14:48:45.928Z,8.40
2019-03-12T14:51:32.647Z,10.90
2019-03-12T14:54:05.182Z,7.77
2019-03-12T14:56:34.611Z,10.07
2019-03-12T14:59:04.220Z,6.53
2019-03-12T15:01:36.707Z,7.33
2019-03-12T15:04:06.309Z,9.00
2019-03-12T15:06:35.906Z,6.17
2019-03-12T15:09:07.807Z,8.17
2019-03-12T15:11:37.189Z,8.67
2019-03-12T15:14:07.370Z,6.73
2019-03-12T15:16:36.800Z,7.97
2019-03-12T15:19:06.256Z,5.03
2019-03-12T15:21:35.756Z,6.73
2019-03-12T15:24:05.301Z,7.27
2019-03-12T15:26:34.752Z,7.17
2019-03-12T15:29:04.268Z,6.13
2019-03-12T15:31:33.628Z,5.47
2019-03-12T15:34:03.099Z,6.33
2019-03-12T15:36:32.521Z,9.73
2019-03-12T15:39:01.926Z,7.10
2019-03-12T15:41:32.855Z,7.93
2019-03-12T15:44:03.905Z,7.13
2019-03-12T15:46:33.410Z,8.70
2019-03-12T15:49:04.396Z,8.10
2019-03-12T15:51:33.893Z,10.10
2019-03-12T15:54:03.362Z,5.37
2019-03-12T15:56:32.716Z,4.63
2019-03-12T15:59:02.114Z,6.27
2019-03-12T16:01:31.717Z,8.30
2019-03-12T16:04:02.790Z,8.70
2019-03-12T16:06:32.295Z,7.43
2019-03-12T16:09:01.770Z,8.17
2019-03-12T16:11:31.472Z,6.43
2019-03-12T16:14:01.059Z,5.93
2019-03-12T16:16:30.478Z,6.37
2019-03-12T16:19:00.166Z,6.67
2019-03-12T16:21:29.582Z,7.50
2019-03-12T16:23:59.048Z,7.63
2019-03-12T16:26:28.466Z,8.47
2019-03-12T16:28:59.345Z,7.33
2019-03-12T16:31:28.703Z,8.00
2019-03-12T16:33:58.164Z,7.07
2019-03-12T16:36:27.668Z,7.83
2019-03-12T16:38:57.073Z,7.17
2019-03-12T16:41:26.451Z,7.53
2019-03-12T16:43:55.998Z,7.17
2019-03-12T16:46:25.494Z,4.60
2019-03-12T16:48:54.951Z,6.73
2019-03-12T16:51:24.381Z,6.03
2019-03-12T16:53:53.855Z,6.50
2019-03-12T16:56:23.220Z,4.37
2019-03-12T16:58:52.801Z,5.47
2019-03-12T17:01:22.219Z,6.37
2019-03-12T17:03:51.855Z,7.40
2019-03-12T17:06:21.230Z,12.37
2019-03-12T17:08:50.696Z,5.87
2019-03-12T17:11:23.060Z,7.03
2019-03-12T17:13:52.432Z,9.33
2019-03-12T17:16:21.911Z,7.30
2019-03-12T17:18:51.375Z,10.07
2019-03-12T17:21:20.775Z,5.47
2019-03-12T17:23:50.322Z,6.73
2019-03-12T17:26:19.979Z,8.53
2019-03-12T17:28:49.389Z,8.77
2019-03-12T17:31:18.857Z,5.73
2019-03-12T17:33:48.342Z,6.53
2019-03-12T17:36:17.952Z,10.07
2019-03-12T17:38:47.404Z,7.97
2019-03-12T17:41:16.881Z,9.33
2019-03-12T17:43:47.844Z,5.83
2019-03-12T17:46:17.509Z,7.63
2019-03-12T17:48:46.971Z,5.83
2019-03-12T17:51:16.489Z,5.50
2019-03-12T17:53:45.895Z,6.47
2019-03-12T17:56:18.210Z,6.50
2019-03-12T17:58:47.635Z,5.97
2019-03-12T18:01:17.172Z,7.37
2019-03-12T18:03:46.676Z,5.97
2019-03-12T18:06:17.756Z,6.43
2019-03-12T18:08:50.321Z,6.37
2019-03-12T18:11:19.831Z,7.23
2019-03-12T18:13:49.242Z,6.77
2019-03-12T18:16:20.356Z,6.87
2019-03-12T18:18:49.830Z,5.37
2019-03-12T18:21:19.248Z,5.13
2019-03-12T18:23:48.682Z,7.20
2019-03-12T18:26:18.264Z,5.87
2019-03-12T18:28:47.815Z,5.60
2019-03-12T18:31:17.448Z,7.23
2019-03-12T18:33:46.919Z,7.70
2019-03-12T18:36:16.750Z,6.30
2019-03-12T18:38:46.197Z,6.90
2019-03-12T18:41:15.574Z,7.90
2019-03-12T18:43:45.050Z,5.40
2019-03-12T18:46:14.487Z,9.03
2019-03-12T18:48:44.793Z,7.33
2019-03-12T18:51:15.975Z,9.13
2019-03-12T18:53:45.461Z,7.10
2019-03-12T18:56:14.956Z,6.47
2019-03-12T18:58:44.343Z,6.93
2019-03-12T19:01:13.941Z,9.80
2019-03-12T19:03:43.570Z,8.93
2019-03-12T19:06:13.077Z,5.70
2019-03-12T19:08:47.570Z,5.27
2019-03-12T19:11:14.337Z,7.23
2019-03-12T19:13:45.277Z,9.53
2019-03-12T19:16:14.917Z,6.13
2019-03-12T19:18:44.422Z,7.87
2019-03-12T19:21:13.912Z,7.07
2019-03-12T19:23:43.385Z,6.37
2019-03-12T19:26:12.893Z,6.27
2019-03-12T19:28:42.411Z,11.07
2019-03-12T19:31:13.681Z,8.40
2019-03-12T19:33:43.220Z,8.80
2019-03-12T19:36:12.716Z,10.47
2019-03-12T19:38:42.101Z,12.77
2019-03-12T19:41:11.479Z,13.17
2019-03-12T19:43:40.883Z,8.47
2019-03-12T19:46:10.319Z,7.83
2019-03-12T19:48:39.858Z,7.03
2019-03-12T19:51:09.394Z,6.57
2019-03-12T19:57:26.330Z,9.97
2019-03-12T19:59:57.534Z,6.47
2019-03-12T20:02:27.208Z,7.23
2019-03-12T20:04:56.822Z,6.57
2019-03-12T20:07:26.489Z,7.13
2019-03-12T20:09:58.987Z,9.37
2019-03-12T20:12:34.756Z,8.53
2019-03-12T20:15:16.208Z,7.93
2019-03-12T20:17:57.419Z,10.93
2019-03-12T20:20:48.063Z,9.80
2019-03-12T20:23:49.118Z,12.43
2019-03-12T20:26:56.509Z,8.70
2019-03-12T20:30:02.845Z,9.50
2019-03-12T20:32:51.729Z,12.37
2019-03-12T20:35:40.936Z,8.13
2019-03-12T20:38:46.939Z,1.47
2019-03-12T20:41:42.297Z,1.43
2019-03-12T20:44:50.360Z,4.77
2019-03-12T20:47:54.774Z,1.00
2019-03-12T20:51:02.988Z,1.83
2019-03-12T20:53:38.522Z,2.83
2019-03-12T20:56:34.739Z,1.47
2019-03-12T20:59:40.735Z,2.10
2019-03-12T21:02:22.256Z,1.67
2019-03-12T21:05:12.429Z,1.67
2019-03-12T21:07:50.864Z,1.40
2019-03-12T21:10:56.612Z,1.67
2019-03-12T21:13:54.720Z,1.80
2019-03-12T21:16:43.927Z,3.93
2019-03-12T21:19:49.557Z,2.20
2019-03-12T21:22:47.735Z,1.40
2019-03-12T21:25:29.184Z,5.07
2019-03-12T21:28:04.663Z,4.37
2019-03-12T21:30:34.657Z,6.17
2019-03-12T21:33:14.858Z,4.77
2019-03-12T21:35:37.104Z,4.87
2019-03-12T21:38:07.312Z,5.03
2019-03-12T21:40:36.834Z,10.07
2019-03-12T21:43:08.889Z,5.07
2019-03-12T21:45:38.392Z,4.37
2019-03-12T21:48:07.795Z,6.70
2019-03-12T21:50:37.302Z,4.80
2019-03-12T21:53:07.124Z,4.57
2019-03-12T21:55:37.872Z,3.67
2019-03-12T21:58:09.814Z,7.20
2019-03-12T22:00:58.669Z,7.23
2019-03-12T22:03:28.126Z,7.60
2019-03-12T22:05:57.566Z,7.53
2019-03-12T22:08:28.488Z,3.20
2019-03-12T22:10:58.623Z,4.30
2019-03-12T22:13:28.159Z,2.40
2019-03-12T22:15:57.534Z,2.27
2019-03-12T22:18:26.924Z,5.40
2019-03-12T22:20:56.427Z,4.17
2019-03-12T22:23:27.733Z,8.37
2019-03-12T22:25:57.324Z,7.33
2019-03-12T22:28:26.799Z,4.17
2019-03-12T22:30:56.166Z,6.23
2019-03-12T22:33:27.260Z,8.57
2019-03-12T22:35:56.691Z,4.17
2019-03-12T22:38:26.217Z,6.37
2019-03-12T22:40:55.659Z,6.20
2019-03-12T22:43:39.849Z,8.80
2019-03-12T22:46:09.254Z,6.80
2019-03-12T22:48:38.640Z,5.50
2019-03-12T22:51:08.120Z,5.60
2019-03-12T22:53:37.596Z,5.23
2019-03-12T22:56:07.544Z,6.20
2019-03-12T22:58:37.346Z,10.77
2019-03-12T23:01:06.953Z,8.60
2019-03-12T23:03:36.349Z,11.87
2019-03-12T23:06:09.009Z,9.37
2019-03-12T23:08:38.398Z,11.57
2019-03-12T23:11:07.979Z,10.77
2019-03-12T23:13:39.230Z,11.03
2019-03-12T23:16:08.676Z,8.20
2019-03-12T23:18:39.820Z,9.50
2019-03-12T23:21:09.317Z,12.40
2019-03-12T23:23:38.704Z,10.87
2019-03-12T23:26:08.217Z,19.67
2019-03-12T23:28:38.180Z,12.17
2019-03-12T23:31:07.615Z,16.70
2019-03-12T23:33:37.156Z,11.03
2019-03-12T23:36:06.640Z,16.27
2019-03-12T23:38:36.286Z,13.73
2019-03-12T23:41:05.843Z,12.97
2019-03-12T23:43:35.235Z,13.37
2019-03-12T23:46:05.023Z,11.70
2019-03-12T23:48:34.745Z,11.53
2019-03-12T23:51:04.369Z,11.33
2019-03-12T23:53:34.203Z,10.70
2019-03-12T23:56:03.829Z,15.50
2019-03-12T23:58:33.258Z,15.50
